sensor_id;sensor_type;location;lat;lon;timestamp;pressure;altitude;pressure_sealevel;temperature;humidity
28701;BME280;15877;52.344;16.790;2022-07-22T00:00:30;100747.88;;;27.06;53.85
28701;BME280;15877;52.344;16.790;2022-07-22T00:03:07;100739.80;;;26.92;54.13
28701;BME280;15877;52.344;16.790;2022-07-22T00:05:40;100757.73;;;27.02;53.94
28701;BME280;15877;52.344;16.790;2022-07-22T00:08:12;100755.11;;;26.94;54.27
28701;BME280;15877;52.344;16.790;2022-07-22T00:10:44;100748.95;;;26.89;54.54
28701;BME280;15877;52.344;16.790;2022-07-22T00:13:17;100750.33;;;26.86;54.82
28701;BME280;15877;52.344;16.790;2022-07-22T00:15:49;100750.64;;;26.80;55.13
28701;BME280;15877;52.344;16.790;2022-07-22T00:18:24;100755.02;;;26.70;55.59
28701;BME280;15877;52.344;16.790;2022-07-22T00:21:20;100753.11;;;26.69;55.66
28701;BME280;15877;52.344;16.790;2022-07-22T00:23:52;100760.04;;;26.75;55.64
28701;BME280;15877;52.344;16.790;2022-07-22T00:26:25;100767.52;;;26.69;55.97
28701;BME280;15877;52.344;16.790;2022-07-22T00:28:57;100768.98;;;26.67;56.45
28701;BME280;15877;52.344;16.790;2022-07-22T00:31:30;100773.45;;;26.67;56.39
28701;BME280;15877;52.344;16.790;2022-07-22T00:34:03;100758.67;;;26.62;56.11
28701;BME280;15877;52.344;16.790;2022-07-22T00:36:36;100777.58;;;26.66;56.33
28701;BME280;15877;52.344;16.790;2022-07-22T00:39:08;100777.30;;;26.62;56.44
28701;BME280;15877;52.344;16.790;2022-07-22T00:41:41;100781.64;;;26.61;56.63
28701;BME280;15877;52.344;16.790;2022-07-22T00:44:13;100782.26;;;26.58;56.65
28701;BME280;15877;52.344;16.790;2022-07-22T00:46:45;100782.80;;;26.56;56.72
28701;BME280;15877;52.344;16.790;2022-07-22T00:49:18;100777.67;;;26.56;56.68
28701;BME280;15877;52.344;16.790;2022-07-22T00:51:50;100775.54;;;26.59;56.73
28701;BME280;15877;52.344;16.790;2022-07-22T00:54:22;100773.87;;;26.64;56.52
28701;BME280;15877;52.344;16.790;2022-07-22T00:56:56;100767.48;;;26.65;56.57
28701;BME280;15877;52.344;16.790;2022-07-22T00:59:28;100760.89;;;26.63;56.68
28701;BME280;15877;52.344;16.790;2022-07-22T01:02:01;100766.71;;;26.56;56.95
28701;BME280;15877;52.344;16.790;2022-07-22T01:04:33;100763.98;;;26.55;57.19
28701;BME280;15877;52.344;16.790;2022-07-22T01:07:05;100758.35;;;26.46;57.65
28701;BME280;15877;52.344;16.790;2022-07-22T01:09:38;100758.02;;;26.35;57.95
28701;BME280;15877;52.344;16.790;2022-07-22T01:12:14;100759.52;;;26.30;58.16
28701;BME280;15877;52.344;16.790;2022-07-22T01:14:46;100757.86;;;26.29;58.49
28701;BME280;15877;52.344;16.790;2022-07-22T01:17:18;100761.02;;;26.25;58.80
28701;BME280;15877;52.344;16.790;2022-07-22T01:19:51;100749.05;;;26.07;59.04
28701;BME280;15877;52.344;16.790;2022-07-22T01:22:24;100762.79;;;26.15;59.38
28701;BME280;15877;52.344;16.790;2022-07-22T01:25:04;100754.45;;;26.13;59.34
28701;BME280;15877;52.344;16.790;2022-07-22T01:27:36;100726.76;;;25.92;60.14
28701;BME280;15877;52.344;16.790;2022-07-22T01:30:11;100745.00;;;25.95;60.38
28701;BME280;15877;52.344;16.790;2022-07-22T01:32:43;100752.58;;;25.97;60.37
28701;BME280;15877;52.344;16.790;2022-07-22T01:35:15;100751.78;;;26.02;60.14
28701;BME280;15877;52.344;16.790;2022-07-22T01:37:50;100752.30;;;26.01;60.19
28701;BME280;15877;52.344;16.790;2022-07-22T01:40:22;100747.02;;;25.95;60.58
28701;BME280;15877;52.344;16.790;2022-07-22T01:42:54;100741.00;;;25.96;60.47
28701;BME280;15877;52.344;16.790;2022-07-22T01:45:27;100741.77;;;25.99;60.38
28701;BME280;15877;52.344;16.790;2022-07-22T01:47:59;100742.55;;;25.93;60.71
28701;BME280;15877;52.344;16.790;2022-07-22T01:50:33;100738.45;;;25.92;60.91
28701;BME280;15877;52.344;16.790;2022-07-22T01:53:05;100740.34;;;25.94;60.86
28701;BME280;15877;52.344;16.790;2022-07-22T01:55:39;100734.90;;;25.98;60.65
28701;BME280;15877;52.344;16.790;2022-07-22T01:58:11;100711.25;;;25.91;60.74
28701;BME280;15877;52.344;16.790;2022-07-22T02:00:44;100720.11;;;26.00;60.92
28701;BME280;15877;52.344;16.790;2022-07-22T02:03:17;100720.02;;;26.02;60.66
28701;BME280;15877;52.344;16.790;2022-07-22T02:05:50;100724.36;;;26.05;60.77
28701;BME280;15877;52.344;16.790;2022-07-22T02:08:26;100722.89;;;26.04;60.82
28701;BME280;15877;52.344;16.790;2022-07-22T02:11:10;100728.17;;;26.07;60.90
28701;BME280;15877;52.344;16.790;2022-07-22T02:13:53;100738.40;;;26.08;61.13
28701;BME280;15877;52.344;16.790;2022-07-22T02:16:27;100758.29;;;26.08;60.97
28701;BME280;15877;52.344;16.790;2022-07-22T02:19:00;100785.45;;;26.10;61.00
28701;BME280;15877;52.344;16.790;2022-07-22T02:21:33;100798.52;;;26.12;60.72
28701;BME280;15877;52.344;16.790;2022-07-22T02:24:06;100760.05;;;26.03;60.51
28701;BME280;15877;52.344;16.790;2022-07-22T02:26:38;100779.22;;;26.12;61.09
28701;BME280;15877;52.344;16.790;2022-07-22T02:29:11;100784.40;;;26.07;62.21
28701;BME280;15877;52.344;16.790;2022-07-22T02:31:43;100808.95;;;26.05;62.74
28701;BME280;15877;52.344;16.790;2022-07-22T02:34:16;100820.30;;;26.01;63.32
28701;BME280;15877;52.344;16.790;2022-07-22T02:36:48;100827.98;;;26.00;63.89
28701;BME280;15877;52.344;16.790;2022-07-22T02:39:20;100817.66;;;25.95;65.95
28701;BME280;15877;52.344;16.790;2022-07-22T02:41:52;100835.44;;;25.89;65.98
28701;BME280;15877;52.344;16.790;2022-07-22T02:44:25;100834.50;;;25.88;65.82
28701;BME280;15877;52.344;16.790;2022-07-22T02:46:57;100819.11;;;25.81;65.75
28701;BME280;15877;52.344;16.790;2022-07-22T02:49:34;100798.59;;;25.70;65.97
28701;BME280;15877;52.344;16.790;2022-07-22T02:52:07;100777.61;;;25.68;66.74
28701;BME280;15877;52.344;16.790;2022-07-22T02:54:39;100753.11;;;25.62;68.01
28701;BME280;15877;52.344;16.790;2022-07-22T02:57:11;100748.91;;;25.57;69.30
28701;BME280;15877;52.344;16.790;2022-07-22T02:59:44;100761.40;;;25.57;69.38
28701;BME280;15877;52.344;16.790;2022-07-22T03:02:17;100750.04;;;25.57;69.67
28701;BME280;15877;52.344;16.790;2022-07-22T03:04:49;100739.54;;;25.55;69.23
28701;BME280;15877;52.344;16.790;2022-07-22T03:07:21;100747.73;;;25.53;70.12
28701;BME280;15877;52.344;16.790;2022-07-22T03:09:54;100751.11;;;25.51;70.24
28701;BME280;15877;52.344;16.790;2022-07-22T03:12:33;100763.06;;;25.49;70.47
28701;BME280;15877;52.344;16.790;2022-07-22T03:15:07;100770.27;;;25.47;70.66
28701;BME280;15877;52.344;16.790;2022-07-22T03:17:40;100762.64;;;25.47;70.70
28701;BME280;15877;52.344;16.790;2022-07-22T03:20:13;100760.58;;;25.46;70.29
28701;BME280;15877;52.344;16.790;2022-07-22T03:22:45;100763.06;;;25.44;70.63
28701;BME280;15877;52.344;16.790;2022-07-22T03:25:17;100764.57;;;25.43;70.79
28701;BME280;15877;52.344;16.790;2022-07-22T03:27:50;100775.92;;;25.41;71.45
28701;BME280;15877;52.344;16.790;2022-07-22T03:30:22;100778.73;;;25.38;71.95
28701;BME280;15877;52.344;16.790;2022-07-22T03:32:55;100786.75;;;25.38;71.73
28701;BME280;15877;52.344;16.790;2022-07-22T03:35:28;100796.63;;;25.37;71.68
28701;BME280;15877;52.344;16.790;2022-07-22T03:38:00;100798.19;;;25.37;70.89
28701;BME280;15877;52.344;16.790;2022-07-22T03:40:34;100787.73;;;25.33;71.13
28701;BME280;15877;52.344;16.790;2022-07-22T03:43:06;100781.20;;;25.31;70.96
28701;BME280;15877;52.344;16.790;2022-07-22T03:45:39;100782.35;;;25.33;71.06
28701;BME280;15877;52.344;16.790;2022-07-22T03:48:12;100783.19;;;25.32;71.11
28701;BME280;15877;52.344;16.790;2022-07-22T03:50:46;100783.60;;;25.30;71.29
28701;BME280;15877;52.344;16.790;2022-07-22T03:53:19;100781.73;;;25.32;70.88
28701;BME280;15877;52.344;16.790;2022-07-22T03:55:51;100781.71;;;25.35;70.46
28701;BME280;15877;52.344;16.790;2022-07-22T03:58:24;100778.48;;;25.35;70.41
28701;BME280;15877;52.344;16.790;2022-07-22T04:00:58;100777.30;;;25.33;70.69
28701;BME280;15877;52.344;16.790;2022-07-22T04:03:31;100785.84;;;25.34;70.53
28701;BME280;15877;52.344;16.790;2022-07-22T04:06:10;100791.59;;;25.19;71.66
28701;BME280;15877;52.344;16.790;2022-07-22T04:08:54;100796.70;;;25.11;72.06
28701;BME280;15877;52.344;16.790;2022-07-22T04:11:27;100797.85;;;25.03;72.80
28701;BME280;15877;52.344;16.790;2022-07-22T04:13:59;100766.40;;;24.91;72.46
28701;BME280;15877;52.344;16.790;2022-07-22T04:16:31;100795.00;;;25.04;73.12
28701;BME280;15877;52.344;16.790;2022-07-22T04:19:08;100796.44;;;25.01;73.44
28701;BME280;15877;52.344;16.790;2022-07-22T04:21:52;100795.23;;;25.03;73.51
28701;BME280;15877;52.344;16.790;2022-07-22T04:24:27;100798.99;;;25.06;73.74
28701;BME280;15877;52.344;16.790;2022-07-22T04:26:59;100792.10;;;25.05;73.80
28701;BME280;15877;52.344;16.790;2022-07-22T04:29:32;100794.94;;;25.08;73.84
28701;BME280;15877;52.344;16.790;2022-07-22T04:32:05;100804.55;;;25.10;73.76
28701;BME280;15877;52.344;16.790;2022-07-22T04:34:39;100808.81;;;25.14;73.47
28701;BME280;15877;52.344;16.790;2022-07-22T04:37:12;100792.05;;;25.10;72.82
28701;BME280;15877;52.344;16.790;2022-07-22T04:39:45;100800.02;;;25.17;73.49
28701;BME280;15877;52.344;16.790;2022-07-22T04:42:17;100801.42;;;25.16;73.81
28701;BME280;15877;52.344;16.790;2022-07-22T04:44:50;100805.08;;;25.16;73.42
28701;BME280;15877;52.344;16.790;2022-07-22T04:47:22;100807.69;;;25.15;73.44
28701;BME280;15877;52.344;16.790;2022-07-22T04:49:56;100809.58;;;25.18;73.50
28701;BME280;15877;52.344;16.790;2022-07-22T04:52:28;100814.56;;;25.19;73.50
28701;BME280;15877;52.344;16.790;2022-07-22T04:55:00;100825.13;;;25.19;73.38
28701;BME280;15877;52.344;16.790;2022-07-22T04:57:34;100821.82;;;25.18;73.34
28701;BME280;15877;52.344;16.790;2022-07-22T05:00:09;100826.48;;;25.18;73.72
28701;BME280;15877;52.344;16.790;2022-07-22T05:02:49;100827.08;;;25.17;74.14
28701;BME280;15877;52.344;16.790;2022-07-22T05:05:23;100823.87;;;25.16;74.47
28701;BME280;15877;52.344;16.790;2022-07-22T05:07:56;100817.29;;;25.18;74.37
28701;BME280;15877;52.344;16.790;2022-07-22T05:10:28;100813.13;;;25.18;74.34
28701;BME280;15877;52.344;16.790;2022-07-22T05:13:00;100816.23;;;25.21;74.31
28701;BME280;15877;52.344;16.790;2022-07-22T05:15:32;100816.34;;;25.22;74.66
28701;BME280;15877;52.344;16.790;2022-07-22T05:18:05;100819.85;;;25.24;74.84
28701;BME280;15877;52.344;16.790;2022-07-22T05:20:38;100822.07;;;25.26;74.94
28701;BME280;15877;52.344;16.790;2022-07-22T05:23:10;100826.92;;;25.27;75.15
28701;BME280;15877;52.344;16.790;2022-07-22T05:25:42;100824.48;;;25.30;75.48
28701;BME280;15877;52.344;16.790;2022-07-22T05:28:15;100826.52;;;25.32;74.73
28701;BME280;15877;52.344;16.790;2022-07-22T05:30:50;100822.42;;;25.35;74.34
28701;BME280;15877;52.344;16.790;2022-07-22T05:33:23;100818.67;;;25.36;74.28
28701;BME280;15877;52.344;16.790;2022-07-22T05:35:56;100821.14;;;25.32;74.73
28701;BME280;15877;52.344;16.790;2022-07-22T05:38:34;100820.23;;;25.33;74.87
28701;BME280;15877;52.344;16.790;2022-07-22T05:41:07;100822.30;;;25.37;74.99
28701;BME280;15877;52.344;16.790;2022-07-22T05:43:41;100818.23;;;25.34;75.01
28701;BME280;15877;52.344;16.790;2022-07-22T05:46:13;100818.16;;;25.37;75.03
28701;BME280;15877;52.344;16.790;2022-07-22T05:48:45;100820.66;;;25.43;74.52
28701;BME280;15877;52.344;16.790;2022-07-22T05:51:17;100817.31;;;25.46;74.41
28701;BME280;15877;52.344;16.790;2022-07-22T05:53:51;100814.52;;;25.49;74.07
28701;BME280;15877;52.344;16.790;2022-07-22T05:56:24;100807.93;;;25.51;74.58
28701;BME280;15877;52.344;16.790;2022-07-22T05:58:56;100805.00;;;25.53;74.74
28701;BME280;15877;52.344;16.790;2022-07-22T06:01:30;100802.56;;;25.57;74.24
28701;BME280;15877;52.344;16.790;2022-07-22T06:04:04;100797.80;;;25.62;73.22
28701;BME280;15877;52.344;16.790;2022-07-22T06:06:37;100794.98;;;25.67;72.48
28701;BME280;15877;52.344;16.790;2022-07-22T06:09:09;100792.27;;;25.65;73.60
28701;BME280;15877;52.344;16.790;2022-07-22T06:11:41;100795.24;;;25.64;73.53
28701;BME280;15877;52.344;16.790;2022-07-22T06:14:14;100790.41;;;25.67;73.29
28701;BME280;15877;52.344;16.790;2022-07-22T06:16:52;100788.62;;;25.69;73.22
28701;BME280;15877;52.344;16.790;2022-07-22T06:19:25;100791.62;;;25.72;73.21
28701;BME280;15877;52.344;16.790;2022-07-22T06:21:57;100792.88;;;25.74;73.35
28701;BME280;15877;52.344;16.790;2022-07-22T06:24:30;100793.34;;;25.86;71.55
28701;BME280;15877;52.344;16.790;2022-07-22T06:27:02;100786.55;;;25.84;72.66
28701;BME280;15877;52.344;16.790;2022-07-22T06:29:35;100789.52;;;25.90;71.68
28701;BME280;15877;52.344;16.790;2022-07-22T06:32:08;100786.73;;;25.91;71.27
28701;BME280;15877;52.344;16.790;2022-07-22T06:34:40;100790.31;;;25.93;71.94
28701;BME280;15877;52.344;16.790;2022-07-22T06:37:12;100785.15;;;25.83;72.45
28701;BME280;15877;52.344;16.790;2022-07-22T06:39:45;100785.90;;;25.82;72.27
28701;BME280;15877;52.344;16.790;2022-07-22T06:42:21;100788.83;;;25.93;71.29
28701;BME280;15877;52.344;16.790;2022-07-22T06:45:10;100789.07;;;26.01;70.60
28701;BME280;15877;52.344;16.790;2022-07-22T06:47:51;100788.67;;;26.00;69.29
28701;BME280;15877;52.344;16.790;2022-07-22T06:50:24;100785.30;;;25.99;70.87
28701;BME280;15877;52.344;16.790;2022-07-22T06:52:56;100785.80;;;26.01;70.27
28701;BME280;15877;52.344;16.790;2022-07-22T06:55:29;100785.95;;;26.04;69.85
28701;BME280;15877;52.344;16.790;2022-07-22T06:58:06;100782.45;;;26.11;69.74
28701;BME280;15877;52.344;16.790;2022-07-22T07:00:38;100783.14;;;26.16;69.34
28701;BME280;15877;52.344;16.790;2022-07-22T07:03:34;100781.01;;;26.10;69.36
28701;BME280;15877;52.344;16.790;2022-07-22T07:06:12;100771.08;;;26.04;69.06
28701;BME280;15877;52.344;16.790;2022-07-22T07:09:20;100790.38;;;26.19;68.92
28701;BME280;15877;52.344;16.790;2022-07-22T07:12:00;100789.61;;;26.22;68.34
28701;BME280;15877;52.344;16.790;2022-07-22T07:14:51;100788.25;;;26.14;68.03
28701;BME280;15877;52.344;16.790;2022-07-22T07:17:44;100794.92;;;26.17;69.30
28701;BME280;15877;52.344;16.790;2022-07-22T07:20:18;100804.98;;;26.33;67.79
28701;BME280;15877;52.344;16.790;2022-07-22T07:22:50;100801.82;;;26.35;67.06
28701;BME280;15877;52.344;16.790;2022-07-22T07:25:23;100808.17;;;26.44;67.19
28701;BME280;15877;52.344;16.790;2022-07-22T07:27:57;100805.69;;;26.40;67.85
28701;BME280;15877;52.344;16.790;2022-07-22T07:30:48;100805.83;;;26.48;66.81
28701;BME280;15877;52.344;16.790;2022-07-22T07:33:21;100802.89;;;26.53;65.82
28701;BME280;15877;52.344;16.790;2022-07-22T07:35:54;100801.85;;;26.54;66.52
28701;BME280;15877;52.344;16.790;2022-07-22T07:38:47;100802.42;;;26.60;66.78
28701;BME280;15877;52.344;16.790;2022-07-22T07:41:20;100801.11;;;26.68;66.42
28701;BME280;15877;52.344;16.790;2022-07-22T07:43:54;100799.10;;;26.74;65.85
28701;BME280;15877;52.344;16.790;2022-07-22T07:46:26;100796.98;;;26.84;65.49
28701;BME280;15877;52.344;16.790;2022-07-22T07:48:59;100798.58;;;26.87;65.06
28701;BME280;15877;52.344;16.790;2022-07-22T07:51:32;100797.51;;;26.87;65.19
28701;BME280;15877;52.344;16.790;2022-07-22T07:54:04;100795.34;;;26.91;64.42
28701;BME280;15877;52.344;16.790;2022-07-22T07:56:39;100794.17;;;26.93;64.64
28701;BME280;15877;52.344;16.790;2022-07-22T07:59:12;100800.34;;;26.96;64.53
28701;BME280;15877;52.344;16.790;2022-07-22T08:02:04;100799.62;;;27.10;63.59
28701;BME280;15877;52.344;16.790;2022-07-22T08:04:37;100795.11;;;27.16;63.24
28701;BME280;15877;52.344;16.790;2022-07-22T08:07:21;100797.48;;;27.22;62.68
28701;BME280;15877;52.344;16.790;2022-07-22T08:09:53;100799.30;;;27.22;62.97
28701;BME280;15877;52.344;16.790;2022-07-22T08:13:15;100802.42;;;27.31;62.89
28701;BME280;15877;52.344;16.790;2022-07-22T08:16:07;100799.08;;;27.33;62.97
28701;BME280;15877;52.344;16.790;2022-07-22T08:18:40;100803.43;;;27.45;62.01
28701;BME280;15877;52.344;16.790;2022-07-22T08:21:14;100801.08;;;27.42;61.17
28701;BME280;15877;52.344;16.790;2022-07-22T08:23:52;100799.98;;;27.43;62.68
28701;BME280;15877;52.344;16.790;2022-07-22T08:26:25;100783.99;;;27.37;61.89
28701;BME280;15877;52.344;16.790;2022-07-22T08:29:03;100800.13;;;27.51;61.40
28701;BME280;15877;52.344;16.790;2022-07-22T08:31:36;100800.75;;;27.60;60.46
28701;BME280;15877;52.344;16.790;2022-07-22T08:34:13;100807.84;;;27.70;60.99
28701;BME280;15877;52.344;16.790;2022-07-22T08:36:45;100807.44;;;27.77;60.62
28701;BME280;15877;52.344;16.790;2022-07-22T08:39:18;100806.30;;;27.94;61.29
28701;BME280;15877;52.344;16.790;2022-07-22T08:41:55;100806.57;;;28.07;60.04
28701;BME280;15877;52.344;16.790;2022-07-22T08:44:30;100811.40;;;28.10;60.59
28701;BME280;15877;52.344;16.790;2022-07-22T08:47:03;100809.89;;;28.07;59.65
28701;BME280;15877;52.344;16.790;2022-07-22T08:50:11;100809.18;;;28.27;59.63
28701;BME280;15877;52.344;16.790;2022-07-22T08:52:58;100806.19;;;28.28;59.70
28701;BME280;15877;52.344;16.790;2022-07-22T08:55:30;100808.43;;;28.43;58.73
28701;BME280;15877;52.344;16.790;2022-07-22T08:58:02;100812.80;;;28.59;58.03
28701;BME280;15877;52.344;16.790;2022-07-22T09:00:34;100810.48;;;28.56;57.83
28701;BME280;15877;52.344;16.790;2022-07-22T09:03:19;100811.98;;;28.52;57.79
28701;BME280;15877;52.344;16.790;2022-07-22T09:05:56;100811.18;;;28.28;58.08
28701;BME280;15877;52.344;16.790;2022-07-22T09:08:28;100814.73;;;28.32;58.97
28701;BME280;15877;52.344;16.790;2022-07-22T09:11:17;100810.98;;;28.61;57.45
28701;BME280;15877;52.344;16.790;2022-07-22T09:14:14;100809.66;;;28.72;56.64
28701;BME280;15877;52.344;16.790;2022-07-22T09:17:07;100810.30;;;28.56;57.12
28701;BME280;15877;52.344;16.790;2022-07-22T09:19:46;100805.97;;;28.52;57.01
28701;BME280;15877;52.344;16.790;2022-07-22T09:22:41;100803.52;;;28.47;57.13
28701;BME280;15877;52.344;16.790;2022-07-22T09:25:29;100801.27;;;28.76;55.36
28701;BME280;15877;52.344;16.790;2022-07-22T09:28:22;100798.15;;;28.77;55.29
28701;BME280;15877;52.344;16.790;2022-07-22T09:31:26;100800.85;;;28.89;54.05
28701;BME280;15877;52.344;16.790;2022-07-22T09:34:29;100799.69;;;29.06;54.14
28701;BME280;15877;52.344;16.790;2022-07-22T09:37:12;100800.05;;;29.06;54.42
28701;BME280;15877;52.344;16.790;2022-07-22T09:39:45;100798.90;;;29.09;52.85
28701;BME280;15877;52.344;16.790;2022-07-22T09:42:18;100802.65;;;28.98;52.99
28701;BME280;15877;52.344;16.790;2022-07-22T09:44:51;100805.88;;;28.92;53.17
28701;BME280;15877;52.344;16.790;2022-07-22T09:47:30;100804.36;;;29.03;52.59
28701;BME280;15877;52.344;16.790;2022-07-22T09:50:44;100790.89;;;29.13;51.76
28701;BME280;15877;52.344;16.790;2022-07-22T09:53:38;100800.84;;;28.98;52.28
28701;BME280;15877;52.344;16.790;2022-07-22T09:56:15;100801.23;;;29.10;52.92
28701;BME280;15877;52.344;16.790;2022-07-22T09:58:48;100797.04;;;29.32;52.24
28701;BME280;15877;52.344;16.790;2022-07-22T10:01:28;100799.55;;;29.16;50.86
28701;BME280;15877;52.344;16.790;2022-07-22T10:04:04;100797.74;;;29.15;50.83
28701;BME280;15877;52.344;16.790;2022-07-22T10:06:40;100793.85;;;29.07;50.91
28701;BME280;15877;52.344;16.790;2022-07-22T10:09:18;100796.86;;;29.42;51.31
28701;BME280;15877;52.344;16.790;2022-07-22T10:11:53;100801.35;;;29.58;50.16
28701;BME280;15877;52.344;16.790;2022-07-22T10:14:26;100795.86;;;29.70;48.83
28701;BME280;15877;52.344;16.790;2022-07-22T10:17:02;100802.48;;;29.59;49.48
28701;BME280;15877;52.344;16.790;2022-07-22T10:19:38;100801.89;;;29.58;49.29
28701;BME280;15877;52.344;16.790;2022-07-22T10:22:45;100798.00;;;29.80;48.45
28701;BME280;15877;52.344;16.790;2022-07-22T10:25:19;100799.89;;;29.94;46.51
28701;BME280;15877;52.344;16.790;2022-07-22T10:27:54;100793.77;;;29.92;47.09
28701;BME280;15877;52.344;16.790;2022-07-22T10:30:29;100791.83;;;29.95;46.80
28701;BME280;15877;52.344;16.790;2022-07-22T10:33:09;100799.23;;;30.00;45.67
28701;BME280;15877;52.344;16.790;2022-07-22T10:35:55;100795.92;;;29.96;46.42
28701;BME280;15877;52.344;16.790;2022-07-22T10:38:29;100796.29;;;30.16;45.93
28701;BME280;15877;52.344;16.790;2022-07-22T10:41:02;100798.13;;;30.07;45.81
28701;BME280;15877;52.344;16.790;2022-07-22T10:43:47;100795.88;;;30.31;45.32
28701;BME280;15877;52.344;16.790;2022-07-22T10:46:19;100795.33;;;30.20;45.79
28701;BME280;15877;52.344;16.790;2022-07-22T10:49:12;100795.64;;;30.25;46.02
28701;BME280;15877;52.344;16.790;2022-07-22T10:52:09;100792.71;;;30.37;44.75
28701;BME280;15877;52.344;16.790;2022-07-22T10:55:17;100799.12;;;30.54;45.15
28701;BME280;15877;52.344;16.790;2022-07-22T10:57:50;100798.36;;;30.72;44.52
28701;BME280;15877;52.344;16.790;2022-07-22T11:00:22;100793.63;;;30.81;44.65
28701;BME280;15877;52.344;16.790;2022-07-22T11:02:54;100798.94;;;30.97;44.59
28701;BME280;15877;52.344;16.790;2022-07-22T11:05:28;100796.06;;;31.07;43.88
28701;BME280;15877;52.344;16.790;2022-07-22T11:08:01;100791.25;;;31.22;43.25
28701;BME280;15877;52.344;16.790;2022-07-22T11:10:49;100788.95;;;31.36;42.37
28701;BME280;15877;52.344;16.790;2022-07-22T11:13:33;100790.66;;;31.46;42.50
28701;BME280;15877;52.344;16.790;2022-07-22T11:16:19;100777.70;;;31.29;43.45
28701;BME280;15877;52.344;16.790;2022-07-22T11:18:53;100784.90;;;31.30;43.01
28701;BME280;15877;52.344;16.790;2022-07-22T11:21:28;100788.11;;;31.34;43.38
28701;BME280;15877;52.344;16.790;2022-07-22T11:24:01;100790.23;;;31.18;43.22
28701;BME280;15877;52.344;16.790;2022-07-22T11:26:41;100791.80;;;30.98;42.99
28701;BME280;15877;52.344;16.790;2022-07-22T11:29:23;100792.51;;;30.71;43.75
28701;BME280;15877;52.344;16.790;2022-07-22T11:31:57;100792.36;;;30.54;44.15
28701;BME280;15877;52.344;16.790;2022-07-22T11:34:30;100790.21;;;30.46;44.50
28701;BME280;15877;52.344;16.790;2022-07-22T11:37:02;100788.80;;;30.41;44.85
28701;BME280;15877;52.344;16.790;2022-07-22T11:39:34;100782.74;;;30.24;45.08
28701;BME280;15877;52.344;16.790;2022-07-22T11:42:07;100769.48;;;30.15;45.46
28701;BME280;15877;52.344;16.790;2022-07-22T11:44:40;100782.86;;;30.28;45.28
28701;BME280;15877;52.344;16.790;2022-07-22T11:47:12;100782.66;;;30.27;44.88
28701;BME280;15877;52.344;16.790;2022-07-22T11:49:47;100787.41;;;30.59;44.01
28701;BME280;15877;52.344;16.790;2022-07-22T11:52:17;100780.55;;;30.60;43.21
28701;BME280;15877;52.344;16.790;2022-07-22T11:54:50;100772.33;;;30.78;42.85
28701;BME280;15877;52.344;16.790;2022-07-22T11:57:22;100779.41;;;31.06;42.15
28701;BME280;15877;52.344;16.790;2022-07-22T11:59:54;100783.38;;;30.94;41.55
28701;BME280;15877;52.344;16.790;2022-07-22T12:02:26;100779.44;;;30.72;41.97
28701;BME280;15877;52.344;16.790;2022-07-22T12:05:07;100774.30;;;30.63;43.23
28701;BME280;15877;52.344;16.790;2022-07-22T12:08:00;100768.06;;;30.81;42.94
28701;BME280;15877;52.344;16.790;2022-07-22T12:10:33;100763.05;;;31.05;43.12
28701;BME280;15877;52.344;16.790;2022-07-22T12:13:05;100772.77;;;30.86;42.89
28701;BME280;15877;52.344;16.790;2022-07-22T12:15:38;100770.28;;;30.69;42.72
28701;BME280;15877;52.344;16.790;2022-07-22T12:18:19;100767.08;;;30.78;42.30
28701;BME280;15877;52.344;16.790;2022-07-22T12:20:53;100768.83;;;30.72;42.76
28701;BME280;15877;52.344;16.790;2022-07-22T12:23:26;100765.41;;;30.59;42.71
28701;BME280;15877;52.344;16.790;2022-07-22T12:26:01;100761.53;;;30.52;42.96
28701;BME280;15877;52.344;16.790;2022-07-22T12:28:33;100761.49;;;30.41;42.89
28701;BME280;15877;52.344;16.790;2022-07-22T12:31:06;100758.70;;;30.37;42.88
28701;BME280;15877;52.344;16.790;2022-07-22T12:33:48;100760.21;;;30.63;42.50
28701;BME280;15877;52.344;16.790;2022-07-22T12:36:20;100758.16;;;30.84;42.39
28701;BME280;15877;52.344;16.790;2022-07-22T12:38:53;100749.34;;;30.99;42.36
28701;BME280;15877;52.344;16.790;2022-07-22T12:41:28;100746.09;;;31.21;42.25
28701;BME280;15877;52.344;16.790;2022-07-22T12:44:00;100751.52;;;31.40;41.74
28701;BME280;15877;52.344;16.790;2022-07-22T12:46:33;100748.10;;;31.53;41.41
28701;BME280;15877;52.344;16.790;2022-07-22T12:49:17;100749.58;;;31.40;41.27
28701;BME280;15877;52.344;16.790;2022-07-22T12:52:11;100749.21;;;31.14;40.83
28701;BME280;15877;52.344;16.790;2022-07-22T12:54:44;100744.29;;;31.03;41.02
28701;BME280;15877;52.344;16.790;2022-07-22T12:57:16;100738.94;;;31.33;40.91
28701;BME280;15877;52.344;16.790;2022-07-22T12:59:53;100741.02;;;31.31;40.98
28701;BME280;15877;52.344;16.790;2022-07-22T13:02:25;100738.42;;;30.98;41.07
28701;BME280;15877;52.344;16.790;2022-07-22T13:04:57;100742.11;;;30.91;41.91
28701;BME280;15877;52.344;16.790;2022-07-22T13:07:30;100709.20;;;30.78;41.65
28701;BME280;15877;52.344;16.790;2022-07-22T13:10:09;100728.45;;;31.21;42.10
28701;BME280;15877;52.344;16.790;2022-07-22T13:12:44;100729.32;;;31.09;41.57
28701;BME280;15877;52.344;16.790;2022-07-22T13:15:16;100730.16;;;30.90;41.04
28701;BME280;15877;52.344;16.790;2022-07-22T13:17:49;100723.98;;;31.06;41.57
28701;BME280;15877;52.344;16.790;2022-07-22T13:20:22;100719.80;;;30.95;41.57
28701;BME280;15877;52.344;16.790;2022-07-22T13:22:54;100731.25;;;31.10;41.03
28701;BME280;15877;52.344;16.790;2022-07-22T13:25:26;100730.32;;;31.00;42.02